Time;durP1;ratioP1;P1;durP2;ratioP2;P2;SDS_P1;SDS_P2;PMS_P1;PMS_P2;Temp;Humidity;BMP_temperature;BMP_pressure;BME280_temperature;BME280_humidity;BME280_pressure;Samples;Min_cycle;Max_cycle;Signal;HPM_P1;HPM_P2
2024/04/23 00:02:18;;;;;;;14.00;8.33;;;;;;;-0.54;100.00;101632.09;5407131;26;20279;-72
2024/04/23 00:04:51;;;;;;;15.23;7.77;;;;;;;-0.56;100.00;101629.72;5417763;26;20264;-72
2024/04/23 00:07:20;;;;;;;18.83;8.00;;;;;;;-0.57;100.00;101628.16;5417706;26;20259;-72
2024/04/23 00:09:59;;;;;;;16.67;8.40;;;;;;;-0.53;100.00;101623.31;5417924;26;20385;-72
2024/04/23 00:12:29;;;;;;;13.17;7.70;;;;;;;-0.51;100.00;101624.66;5415594;26;20279;-73
2024/04/23 00:15:07;;;;;;;17.47;8.73;;;;;;;-0.62;100.00;101620.28;5417799;26;20271;-73
2024/04/23 00:17:42;;;;;;;14.07;9.00;;;;;;;-0.60;100.00;101614.88;5417556;26;20220;-72
2024/04/23 00:20:18;;;;;;;17.00;8.90;;;;;;;-0.59;100.00;101619.03;5417562;26;20278;-72
2024/04/23 00:22:50;;;;;;;15.10;8.20;;;;;;;-0.58;100.00;101615.41;5417468;26;20237;-72
2024/04/23 00:25:22;;;;;;;12.73;7.63;;;;;;;-0.58;100.00;101609.47;5417555;26;20229;-72
2024/04/23 00:27:53;;;;;;;12.23;7.73;;;;;;;-0.63;100.00;101610.91;5417240;26;20232;-72
2024/04/23 00:30:37;;;;;;;13.30;8.27;;;;;;;-0.65;100.00;101606.97;5417411;26;20263;-72
2024/04/23 00:33:06;;;;;;;15.47;8.37;;;;;;;-0.69;100.00;101605.06;5417191;26;20260;-72
2024/04/23 00:35:45;;;;;;;12.20;7.93;;;;;;;-0.68;100.00;101598.88;5416965;26;20349;-72
2024/04/23 00:38:16;;;;;;;11.00;7.87;;;;;;;-0.73;100.00;101604.72;5417279;26;20279;-72
2024/04/23 00:40:44;;;;;;;13.87;7.60;;;;;;;-0.76;100.00;101595.56;5406182;21;20316;-75
2024/04/23 00:43:10;;;;;;;12.83;8.60;;;;;;;-0.76;100.00;101598.16;5363496;26;20237;-73
2024/04/23 00:45:46;;;;;;;12.97;8.67;;;;;;;-0.72;100.00;101594.13;5363885;26;20830;-73
2024/04/23 00:48:13;;;;;;;14.60;7.87;;;;;;;-0.74;100.00;101592.00;5369601;26;20415;-74
2024/04/23 00:50:42;;;;;;;14.60;7.47;;;;;;;-0.73;100.00;101599.53;5361532;26;20295;-74
2024/04/23 00:55:39;;;;;;;11.83;7.60;;;;;;;-0.80;100.00;101604.03;5274840;27;20264;-75
2024/04/23 00:58:05;;;;;;;12.27;7.70;;;;;;;-0.77;100.00;101598.41;5267820;27;20229;-75
2024/04/23 01:00:35;;;;;;;12.33;7.63;;;;;;;-0.79;100.00;101595.25;5273941;27;20241;-75
2024/04/23 01:03:04;;;;;;;12.93;7.83;;;;;;;-0.83;100.00;101591.53;5272632;27;20308;-76
2024/04/23 01:05:35;;;;;;;10.97;7.43;;;;;;;-0.86;100.00;101579.03;5279618;27;20287;-75
2024/04/23 01:08:00;;;;;;;18.73;9.53;;;;;;;-0.88;100.00;101574.06;5273214;27;20720;-75
2024/04/23 01:10:29;;;;;;;18.67;9.30;;;;;;;-0.88;100.00;101583.63;5273962;27;20292;-75
2024/04/23 01:12:55;;;;;;;15.73;8.47;;;;;;;-0.88;100.00;101583.63;5272511;27;20247;-75
2024/04/23 01:15:25;;;;;;;18.50;10.17;;;;;;;-0.89;100.00;101583.88;5268658;27;20277;-75
2024/04/23 01:17:56;;;;;;;15.03;8.27;;;;;;;-0.92;100.00;101583.28;5271851;27;20307;-75
2024/04/23 01:20:28;;;;;;;17.43;8.17;;;;;;;-0.89;100.00;101583.88;5277523;26;20245;-75
2024/04/23 01:22:59;;;;;;;13.67;7.90;;;;;;;-0.93;100.00;101582.75;5271837;27;20639;-75
2024/04/23 01:25:28;;;;;;;10.87;7.33;;;;;;;-0.99;100.00;101581.06;5241010;27;20324;-75
2024/04/23 01:27:56;;;;;;;11.93;8.40;;;;;;;-0.99;100.00;101583.66;5272146;27;20727;-75
2024/04/23 01:30:28;;;;;;;14.63;8.13;;;;;;;-1.06;100.00;101578.56;5259033;27;20730;-75
2024/04/23 01:32:54;;;;;;;10.77;7.93;;;;;;;-1.03;100.00;101579.91;5269155;27;20555;-76
2024/04/23 01:35:24;;;;;;;12.33;7.93;;;;;;;-1.04;100.00;101579.13;5264676;27;20584;-75
2024/04/23 01:37:52;;;;;;;13.37;7.87;;;;;;;-1.07;100.00;101585.53;5245868;27;20257;-75
2024/04/23 01:40:22;;;;;;;12.03;7.27;;;;;;;-1.03;100.00;101579.91;5274191;27;20346;-75
2024/04/23 01:42:48;;;;;;;12.17;7.33;;;;;;;-1.08;100.00;101575.41;5271370;27;20240;-75
2024/04/23 01:45:20;;;;;;;13.87;7.70;;;;;;;-1.07;100.00;101577.00;5272304;27;20317;-75
2024/04/23 01:47:46;;;;;;;12.27;8.00;;;;;;;-1.10;100.00;101582.63;5271654;27;20743;-75
2024/04/23 01:50:14;;;;;;;10.00;7.00;;;;;;;-1.14;100.00;101580.69;5274630;27;20344;-75
2024/04/23 01:52:40;;;;;;;11.10;7.20;;;;;;;-1.19;100.00;101578.75;5270963;27;20790;-75
2024/04/23 01:55:10;;;;;;;13.27;7.70;;;;;;;-1.23;100.00;101574.25;5272489;27;20526;-75
2024/04/23 01:57:36;;;;;;;12.63;7.50;;;;;;;-1.23;100.00;101576.84;5273808;27;20245;-75
2024/04/23 02:00:12;;;;;;;13.53;8.10;;;;;;;-1.23;100.00;101575.84;5273585;27;20277;-75
2024/04/23 02:02:44;;;;;;;11.67;7.23;;;;;;;-1.25;100.00;101577.06;5265478;27;20360;-75
2024/04/23 02:05:14;;;;;;;11.10;7.33;;;;;;;-1.25;100.00;101574.47;5265393;27;20958;-75
2024/04/23 02:07:41;;;;;;;12.77;8.03;;;;;;;-1.23;100.00;101577.66;5258526;27;20585;-74
2024/04/23 02:10:09;;;;;;;12.30;7.93;;;;;;;-1.27;100.00;101573.94;5269668;27;20546;-75
2024/04/23 02:12:36;;;;;;;11.73;7.53;;;;;;;-1.27;100.00;101573.13;5268088;27;20296;-75
2024/04/23 02:15:04;;;;;;;11.90;7.60;;;;;;;-1.26;100.00;101578.09;5271477;27;20614;-74
2024/04/23 02:17:29;;;;;;;12.50;8.07;;;;;;;-1.26;100.00;101561.78;5260281;27;20536;-75
2024/04/23 02:20:00;;;;;;;11.70;7.40;;;;;;;-1.24;100.00;101562.31;5270458;27;20252;-75
2024/04/23 02:22:25;;;;;;;12.10;7.63;;;;;;;-1.23;100.00;101566.50;5265705;27;20285;-75
2024/04/23 02:24:53;;;;;;;10.33;7.67;;;;;;;-1.29;100.00;101563.00;5271535;27;20234;-75
2024/04/23 02:27:18;;;;;;;13.90;7.83;;;;;;;-1.25;100.00;101555.56;5272334;27;20314;-75
2024/04/23 02:29:46;;;;;;;12.03;7.50;;;;;;;-1.26;100.00;101551.41;5268626;27;21211;-75
2024/04/23 02:32:12;;;;;;;16.53;8.80;;;;;;;-1.24;100.00;101559.75;5271477;27;20610;-75
2024/04/23 02:34:40;;;;;;;13.50;8.43;;;;;;;-1.25;100.00;101553.75;5269563;27;20484;-75
2024/04/23 02:37:08;;;;;;;14.33;8.27;;;;;;;-1.23;100.00;101552.50;5258526;27;20296;-75
2024/04/23 02:39:39;;;;;;;13.00;8.40;;;;;;;-1.25;100.00;101551.16;5272152;27;20522;-75
2024/04/23 02:42:04;;;;;;;13.00;8.63;;;;;;;-1.27;100.00;101547.22;5271248;27;20532;-76
2024/04/23 02:44:32;;;;;;;15.30;9.30;;;;;;;-1.35;100.00;101540.56;5271506;27;20308;-75
2024/04/23 02:46:58;;;;;;;14.13;8.60;;;;;;;-1.36;100.00;101549.34;5268747;27;20331;-75
2024/04/23 02:49:26;;;;;;;15.00;9.33;;;;;;;-1.36;100.00;101541.59;5269148;27;20480;-75
2024/04/23 02:51:53;;;;;;;14.37;8.57;;;;;;;-1.35;100.00;101537.97;5267516;27;20300;-75
2024/04/23 02:54:24;;;;;;;12.57;8.27;;;;;;;-1.30;100.00;101534.72;5268013;27;21200;-75
2024/04/23 02:56:51;;;;;;;14.83;8.53;;;;;;;-1.37;100.00;101542.59;5270529;27;20296;-75
2024/04/23 02:59:23;;;;;;;15.20;8.50;;;;;;;-1.44;100.00;101539.34;5266836;27;20261;-75
2024/04/23 03:01:49;;;;;;;13.17;8.60;;;;;;;-1.45;100.00;101540.31;5271239;27;20473;-75
2024/04/23 03:04:17;;;;;;;12.20;8.60;;;;;;;-1.43;100.00;101534.94;5271706;27;20576;-75
2024/04/23 03:06:42;;;;;;;11.13;8.50;;;;;;;-1.46;100.00;101536.16;5272293;27;20304;-75
2024/04/23 03:09:10;;;;;;;15.53;8.37;;;;;;;-1.43;100.00;101542.69;5278180;27;20339;-76
2024/04/23 03:11:49;;;;;;;14.60;9.37;;;;;;;-1.42;100.00;101533.91;5283398;27;20328;-74
2024/04/23 03:14:17;;;;;;;11.63;8.10;;;;;;;-1.44;100.00;101534.16;5274480;27;20472;-75
2024/04/23 03:16:42;;;;;;;14.40;9.60;;;;;;;-1.50;100.00;101531.66;5278438;27;20599;-75
2024/04/23 03:19:10;;;;;;;13.57;9.30;;;;;;;-1.51;100.00;101533.44;5248788;27;20491;-76
2024/04/23 03:21:47;;;;;;;15.03;8.30;;;;;;;-1.54;100.00;101525.34;5279218;27;20744;-75
2024/04/23 03:24:15;;;;;;;12.23;8.20;;;;;;;-1.54;100.00;101517.56;5262560;27;21111;-76
2024/04/23 03:26:43;;;;;;;13.67;7.77;;;;;;;-1.57;100.00;101518.03;5277957;27;21317;-75
2024/04/23 03:29:11;;;;;;;13.93;8.40;;;;;;;-1.59;100.00;101523.44;5278020;27;20602;-75
2024/04/23 03:31:37;;;;;;;13.03;8.23;;;;;;;-1.59;100.00;101520.03;5249048;27;20472;-75
2024/04/23 03:34:05;;;;;;;15.00;8.20;;;;;;;-1.57;100.00;101516.22;5276290;27;20494;-75
2024/04/23 03:36:31;;;;;;;13.10;8.10;;;;;;;-1.61;100.00;101512.50;5263679;27;20663;-76
2024/04/23 03:38:59;;;;;;;15.10;8.83;;;;;;;-1.66;100.00;101511.59;5246569;27;20494;-75
2024/04/23 03:41:27;;;;;;;13.97;9.10;;;;;;;-1.73;100.00;101500.53;5278874;27;20244;-75
2024/04/23 03:43:57;;;;;;;12.77;8.03;;;;;;;-1.71;100.00;101509.66;5277746;27;20540;-75
2024/04/23 03:46:25;;;;;;;14.53;8.60;;;;;;;-1.70;100.00;101510.44;5270524;27;20539;-75
2024/04/23 03:48:53;;;;;;;13.17;8.33;;;;;;;-1.74;100.00;101515.28;5276763;27;20553;-74
2024/04/23 03:51:19;;;;;;;15.80;9.00;;;;;;;-1.76;100.00;101522.47;5278322;27;20546;-75
2024/04/23 03:53:47;;;;;;;15.47;9.03;;;;;;;-1.79;100.00;101525.53;5275473;27;20586;-75
2024/04/23 03:56:12;;;;;;;15.23;8.63;;;;;;;-1.74;100.00;101510.13;5269251;27;20285;-75
2024/04/23 03:58:40;;;;;;;12.43;8.60;;;;;;;-1.77;100.00;101522.72;5275466;27;20499;-76
2024/04/23 04:01:08;;;;;;;14.73;8.37;;;;;;;-1.78;100.00;101524.50;5274956;27;20250;-77
2024/04/23 04:06:25;;;;;;;15.87;9.50;;;;;;;-1.77;100.00;101517.53;5212883;27;20985;-75
2024/04/23 04:08:56;;;;;;;13.17;8.27;;;;;;;-1.76;100.00;101522.47;5276781;27;20563;-76
2024/04/23 04:11:22;;;;;;;14.43;8.57;;;;;;;-1.77;100.00;101526.06;5277978;27;20542;-76
2024/04/23 04:13:50;;;;;;;14.30;9.30;;;;;;;-1.80;100.00;101521.34;5285336;27;20471;-76
2024/04/23 04:16:20;;;;;;;20.43;9.60;;;;;;;-1.79;100.00;101525.53;5280884;27;20369;-75
2024/04/23 04:18:45;;;;;;;16.40;10.17;;;;;;;-1.79;100.00;101515.16;5276166;27;20620;-76
2024/04/23 04:21:14;;;;;;;16.60;9.90;;;;;;;-1.80;100.00;101525.72;5273186;27;20480;-76
2024/04/23 04:23:42;;;;;;;16.00;9.97;;;;;;;-1.75;100.00;101515.50;5273850;27;20330;-76
2024/04/23 04:26:19;;;;;;;16.57;10.13;;;;;;;-1.70;100.00;101518.22;5229171;27;20564;-76
2024/04/23 04:28:44;;;;;;;19.70;11.27;;;;;;;-1.71;100.00;101527.00;5273582;27;20535;-76
2024/04/23 04:31:13;;;;;;;17.93;10.63;;;;;;;-1.73;100.00;101529.81;5275350;27;20583;-75
2024/04/23 04:33:41;;;;;;;15.57;9.93;;;;;;;-1.72;100.00;101531.38;5273645;27;20248;-75
2024/04/23 04:36:09;;;;;;;14.40;8.97;;;;;;;-1.67;100.00;101534.09;5272746;27;20471;-76
2024/04/23 04:38:35;;;;;;;15.13;8.43;;;;;;;-1.62;100.00;101526.44;5273651;27;20536;-76
2024/04/23 04:41:03;;;;;;;15.00;8.27;;;;;;;-1.57;100.00;101526.56;5266919;27;20461;-76
2024/04/23 04:43:28;;;;;;;16.87;9.33;;;;;;;-1.56;100.00;101525.56;5270825;27;20840;-76
2024/04/23 04:45:59;;;;;;;14.10;8.00;;;;;;;-1.52;100.00;101525.94;5264445;27;20481;-76
2024/04/23 04:48:24;;;;;;;16.87;9.53;;;;;;;-1.48;100.00;101523.44;5276380;27;20233;-76
2024/04/23 04:50:55;;;;;;;14.53;9.20;;;;;;;-1.37;100.00;101529.66;5274131;27;20367;-75
2024/04/23 04:53:20;;;;;;;15.70;9.63;;;;;;;-1.29;100.00;101528.53;5266836;27;20236;-76
2024/04/23 04:55:48;;;;;;;16.73;9.73;;;;;;;-1.24;100.00;101516.50;5270572;27;20561;-76
2024/04/23 04:58:13;;;;;;;16.07;10.13;;;;;;;-1.13;100.00;101520.88;5272748;27;20287;-76
2024/04/23 05:00:41;;;;;;;15.60;9.40;;;;;;;-1.09;100.00;101518.63;5273157;27;20248;-76
2024/04/23 05:03:07;;;;;;;18.13;10.23;;;;;;;-1.08;100.00;101514.00;5276046;27;20354;-76
2024/04/23 05:05:35;;;;;;;16.23;9.60;;;;;;;-1.02;100.00;101508.94;5271849;27;20655;-76
2024/04/23 05:08:04;;;;;;;15.97;9.20;;;;;;;-1.00;100.00;101517.28;5242701;27;20259;-76
2024/04/23 05:10:32;;;;;;;16.40;9.67;;;;;;;-0.93;100.00;101514.31;5270764;27;20290;-76
2024/04/23 05:12:58;;;;;;;17.80;9.60;;;;;;;-0.90;100.00;101520.09;5267543;27;20233;-76
2024/04/23 05:15:26;;;;;;;18.67;9.93;;;;;;;-0.85;100.00;101515.78;5273130;27;20939;-76
2024/04/23 05:17:51;;;;;;;13.40;8.90;;;;;;;-0.82;100.00;101515.34;5271262;27;20325;-76
2024/04/23 05:20:19;;;;;;;19.93;9.63;;;;;;;-0.71;100.00;101512.72;5263257;27;21311;-76
2024/04/23 05:22:44;;;;;;;19.53;10.33;;;;;;;-0.64;100.00;101515.19;5269869;27;20319;-76
2024/04/23 05:25:15;;;;;;;17.63;10.27;;;;;;;-0.61;100.00;101517.34;5268445;27;20879;-76
2024/04/23 05:27:44;;;;;;;20.90;10.17;;;;;;;-0.56;100.00;101515.63;5270043;27;20240;-76
2024/04/23 05:32:46;;;;;;;23.43;11.73;;;;;;;-0.48;100.00;101516.28;5275029;27;20894;-76
2024/04/23 05:33:01;;;;;;;17.50;10.67;;;;;;;-0.41;100.00;101515.91;5269987;27;20304;-76
2024/04/23 05:35:29;;;;;;;18.67;9.97;;;;;;;-0.29;100.00;101518.47;5268130;27;20245;-76
2024/04/23 05:37:57;;;;;;;21.33;10.33;;;;;;;-0.22;100.00;101506.13;5272502;27;20245;-75
2024/04/23 05:40:28;;;;;;;19.30;10.77;;;;;;;-0.14;100.00;101509.16;5271324;27;20257;-76
2024/04/23 05:42:56;;;;;;;20.50;10.27;;;;;;;-0.03;100.00;101508.34;5271533;27;20763;-75
2024/04/23 05:45:24;;;;;;;21.23;10.87;;;;;;;0.08;100.00;101507.50;5271257;27;20293;-76
2024/04/23 05:48:30;;;;;;;18.57;10.57;;;;;;;0.17;100.00;101511.25;5239836;27;20260;-75
2024/04/23 05:51:54;;;;;;;17.63;10.37;;;;;;;0.32;100.00;101506.31;5271497;27;20286;-77
2024/04/23 05:55:19;;;;;;;19.63;9.73;;;;;;;0.46;100.00;101517.19;5264779;27;20279;-77
2024/04/23 05:57:57;;;;;;;16.50;9.07;;;;;;;0.56;100.00;101512.16;5269879;27;20281;-76
2024/04/23 06:00:23;;;;;;;14.80;9.17;;;;;;;0.65;100.00;101511.53;5271086;27;20379;-77
2024/04/23 06:02:51;;;;;;;16.43;9.83;;;;;;;0.75;100.00;101509.09;5265038;27;20748;-77
2024/04/23 06:05:17;;;;;;;17.03;8.80;;;;;;;0.83;100.00;101505.31;5260282;27;20249;-77
2024/04/23 06:07:48;;;;;;;18.83;9.37;;;;;;;0.90;100.00;101506.69;5267500;27;20908;-76
2024/04/23 06:10:13;;;;;;;20.57;10.50;;;;;;;1.00;100.00;101506.06;5272791;27;20283;-76
2024/04/23 06:12:41;;;;;;;18.97;10.10;;;;;;;1.08;100.00;101508.22;5271037;27;20245;-77
2024/04/23 06:15:09;;;;;;;17.53;10.37;;;;;;;1.17;100.00;101517.19;5275817;27;20244;-77
2024/04/23 06:17:37;;;;;;;20.87;11.30;;;;;;;1.26;100.00;101503.53;5274129;27;20279;-77
2024/04/23 06:20:06;;;;;;;16.87;10.60;;;;;;;1.34;100.00;101512.72;5263615;27;20312;-77
2024/04/23 06:22:39;;;;;;;16.93;10.30;;;;;;;1.41;100.00;101506.31;5264062;27;20239;-76
2024/04/23 06:25:06;;;;;;;19.03;11.07;;;;;;;1.50;100.00;101504.88;5261291;27;20236;-76
2024/04/23 06:27:36;;;;;;;16.50;10.27;;;;;;;1.60;100.00;101514.59;5271087;27;20324;-77
2024/04/23 06:30:05;;;;;;;21.10;10.60;;;;;;;1.69;100.00;101508.72;5269079;27;20670;-76
2024/04/23 06:32:36;;;;;;;17.77;10.40;;;;;;;1.80;100.00;101514.81;5269554;27;20257;-77
2024/04/23 06:35:02;;;;;;;19.93;10.77;;;;;;;1.87;100.00;101521.41;5271852;27;20336;-77
2024/04/23 06:37:30;;;;;;;18.07;10.23;;;;;;;1.99;100.00;101509.06;5262348;27;20248;-77
2024/04/23 06:39:56;;;;;;;22.30;10.70;;;;;;;2.06;100.00;101509.63;5264793;27;20295;-77
2024/04/23 06:42:24;;;;;;;17.20;10.60;;;;;;;2.17;100.00;101513.91;5270011;27;20576;-77
2024/04/23 06:44:49;;;;;;;20.43;11.37;;;;;;;2.26;100.00;101504.59;5271487;27;20312;-77
2024/04/23 06:47:17;;;;;;;18.67;11.07;;;;;;;2.38;100.00;101513.03;5270903;27;20240;-77
2024/04/23 06:49:46;;;;;;;18.60;11.00;;;;;;;2.47;100.00;101510.75;5270465;27;20844;-76
2024/04/23 06:52:16;;;;;;;21.47;11.40;;;;;;;2.64;100.00;101516.63;5268551;27;20251;-77
2024/04/23 06:54:41;;;;;;;20.10;10.77;;;;;;;2.72;100.00;101510.94;5279024;27;20598;-78
2024/04/23 06:57:09;;;;;;;16.37;10.37;;;;;;;2.82;100.00;101513.63;5264962;27;20278;-77
2024/04/23 06:59:34;;;;;;;19.23;10.13;;;;;;;2.91;100.00;101504.28;5256406;27;20351;-76
2024/04/23 07:02:02;;;;;;;19.30;11.30;;;;;;;3.01;100.00;101505.13;5277861;27;20248;-77
2024/04/23 07:04:28;;;;;;;24.53;12.67;;;;;;;3.14;100.00;101512.50;5282685;27;20275;-77
2024/04/23 07:07:00;;;;;;;24.23;11.93;;;;;;;3.26;100.00;101502.63;5270983;27;20245;-77
2024/04/23 07:09:26;;;;;;;20.37;11.70;;;;;;;3.42;100.00;101501.66;5269207;27;20331;-77
2024/04/23 07:11:54;;;;;;;22.70;10.93;;;;;;;3.54;100.00;101501.44;5271076;27;20249;-76
2024/04/23 07:14:19;;;;;;;23.00;12.10;;;;;;;3.66;100.00;101505.41;5264458;27;20350;-77
2024/04/23 07:16:49;;;;;;;23.10;11.30;;;;;;;3.78;100.00;101499.97;5240910;27;20261;-77
2024/04/23 07:19:15;;;;;;;17.43;10.77;;;;;;;3.89;100.00;101491.09;5266880;27;20311;-77
2024/04/23 07:21:43;;;;;;;14.07;7.80;;;;;;;4.00;100.00;101496.06;5270860;27;20350;-77
2024/04/23 07:24:16;;;;;;;15.00;8.70;;;;;;;4.14;100.00;101483.28;5272792;27;20346;-77
2024/04/23 07:26:42;;;;;;;14.63;8.03;;;;;;;4.24;100.00;101486.69;5263407;27;20926;-76
2024/04/23 07:29:10;;;;;;;16.77;7.97;;;;;;;4.36;100.00;101489.81;5268848;27;20282;-77
2024/04/23 07:31:35;;;;;;;15.97;8.43;;;;;;;4.48;100.00;101477.28;5270231;27;20286;-77
2024/04/23 07:34:03;;;;;;;13.80;7.77;;;;;;;4.59;100.00;101478.81;5264203;27;20351;-77
2024/04/23 07:36:29;;;;;;;10.53;7.03;;;;;;;4.66;100.00;101478.56;5272618;27;20350;-77
2024/04/23 07:38:57;;;;;;;10.00;6.50;;;;;;;4.77;100.00;101475.66;5263704;27;20647;-77
2024/04/23 07:41:25;;;;;;;9.67;5.63;;;;;;;4.89;100.00;101483.22;5268268;27;20319;-77
2024/04/23 07:43:53;;;;;;;6.83;4.60;;;;;;;4.95;100.00;101479.53;5266644;27;20787;-76
2024/04/23 07:46:21;;;;;;;6.53;4.23;;;;;;;5.04;100.00;101472.72;5239167;27;20254;-77
2024/04/23 07:48:49;;;;;;;5.30;3.90;;;;;;;5.15;100.00;101476.84;5264099;27;20351;-77
2024/04/23 07:51:15;;;;;;;4.80;3.60;;;;;;;5.24;100.00;101478.63;5263531;27;20336;-77
2024/04/23 07:53:43;;;;;;;4.40;3.30;;;;;;;5.31;100.00;101466.06;5264385;27;21159;-75
2024/04/23 07:56:10;;;;;;;4.93;3.13;;;;;;;5.44;100.00;101469.94;5269465;27;20249;-76
2024/04/23 07:58:41;;;;;;;2.60;2.40;;;;;;;5.52;100.00;101462.28;5269742;27;20237;-76
2024/04/23 08:01:06;;;;;;;3.47;2.73;;;;;;;5.62;100.00;101458.81;5275633;27;20895;-76
2024/04/23 08:03:34;;;;;;;2.67;2.43;;;;;;;5.69;100.00;101470.56;5268918;27;20743;-76
2024/04/23 08:06:02;;;;;;;3.50;2.40;;;;;;;5.77;100.00;101454.28;5270577;27;20375;-74
2024/04/23 08:08:30;;;;;;;3.23;2.27;;;;;;;5.88;100.00;101455.03;5267862;27;20245;-75
2024/04/23 08:10:55;;;;;;;2.87;1.80;;;;;;;5.98;100.00;101453.13;5272426;27;20784;-76
2024/04/23 08:13:23;;;;;;;3.03;2.13;;;;;;;6.07;100.00;101443.59;5266001;27;20260;-76
2024/04/23 08:15:55;;;;;;;3.83;2.10;;;;;;;6.16;100.00;101449.06;5264328;27;20258;-76
2024/04/23 08:18:23;;;;;;;3.00;2.23;;;;;;;6.25;100.00;101450.81;5268043;27;20276;-75
2024/04/23 08:20:50;;;;;;;2.57;2.20;;;;;;;6.34;100.00;101440.50;5266339;27;20264;-76
2024/04/23 08:23:19;;;;;;;2.57;2.20;;;;;;;6.44;100.00;101441.19;5271020;27;20476;-76
2024/04/23 08:25:47;;;;;;;2.90;2.07;;;;;;;6.54;100.00;101438.47;5269507;27;20271;-77
2024/04/23 08:28:15;;;;;;;2.60;2.07;;;;;;;6.64;100.00;101437.59;5266250;27;20283;-76
2024/04/23 08:30:43;;;;;;;2.33;2.13;;;;;;;6.73;100.00;101434.06;5273297;27;20733;-76
2024/04/23 08:33:13;;;;;;;2.10;1.90;;;;;;;6.86;100.00;101432.63;5267427;27;20266;-76
2024/04/23 08:35:39;;;;;;;2.27;2.00;;;;;;;6.98;100.00;101433.78;5269874;27;20293;-76
2024/04/23 08:38:07;;;;;;;2.07;1.80;;;;;;;7.09;100.00;101429.22;5267860;27;21364;-76
2024/04/23 08:40:35;;;;;;;3.83;2.03;;;;;;;7.29;100.00;101426.31;5271674;27;20316;-77
2024/04/23 08:43:17;;;;;;;2.40;2.13;;;;;;;7.42;100.00;101421.16;5266984;27;20747;-76
2024/04/23 08:45:44;;;;;;;2.37;1.93;;;;;;;7.57;100.00;101422.78;5272578;27;20248;-76
2024/04/23 08:48:18;;;;;;;2.67;1.90;;;;;;;7.70;100.00;101424.69;5271588;27;20354;-76
2024/04/23 08:50:45;;;;;;;3.03;2.20;;;;;;;7.77;100.00;101414.59;5268520;27;20275;-76
2024/04/23 08:53:13;;;;;;;3.63;1.97;;;;;;;7.84;100.00;101413.19;5271727;27;20267;-76
2024/04/23 08:55:43;;;;;;;1.93;1.73;;;;;;;7.97;100.00;101406.41;5269637;27;20845;-77
2024/04/23 08:58:12;;;;;;;5.43;2.87;;;;;;;8.04;97.87;101406.81;5277534;27;20236;-76
2024/04/23 09:00:41;;;;;;;1.90;1.80;;;;;;;8.11;100.00;101415.09;5269758;27;20298;-76
2024/04/23 09:03:12;;;;;;;2.10;1.90;;;;;;;8.13;77.23;101405.09;5275366;27;20342;-76
2024/04/23 09:05:41;;;;;;;2.40;1.80;;;;;;;8.19;96.06;101407.31;5269371;27;20344;-76
2024/04/23 09:08:15;;;;;;;2.23;2.03;;;;;;;8.31;100.00;101405.06;5265601;27;20253;-76
2024/04/23 09:10:43;;;;;;;3.80;2.37;;;;;;;8.44;100.00;101399.03;5268913;27;20379;-75
2024/04/23 09:13:11;;;;;;;3.17;1.70;;;;;;;8.63;100.00;101397.09;5264037;27;20310;-76
2024/04/23 09:15:37;;;;;;;2.40;2.20;;;;;;;8.79;100.00;101390.47;5270310;27;20244;-76
2024/04/23 09:18:07;;;;;;;2.93;2.20;;;;;;;8.94;100.00;101390.16;5266012;27;20312;-76
2024/04/23 09:20:33;;;;;;;2.20;2.00;;;;;;;9.17;100.00;101383.09;5262013;27;20250;-75
2024/04/23 09:23:04;;;;;;;2.30;2.10;;;;;;;9.36;100.00;101383.72;5269316;27;20294;-76
2024/04/23 09:25:34;;;;;;;2.57;2.17;;;;;;;9.44;86.74;101372.47;5259784;27;20738;-76
2024/04/23 09:28:02;;;;;;;3.17;1.83;;;;;;;9.53;72.78;101371.47;5267660;27;20620;-75
2024/04/23 09:30:29;;;;;;;3.33;1.90;;;;;;;9.69;85.51;101371.91;5269942;27;20241;-75
2024/04/23 09:33:02;;;;;;;2.33;2.10;;;;;;;9.79;75.59;101369.03;5266628;27;20242;-76
2024/04/23 09:35:27;;;;;;;1.80;1.70;;;;;;;9.93;79.36;101365.22;5268787;27;20262;-77
2024/04/23 09:37:56;;;;;;;2.63;2.07;;;;;;;10.06;77.85;101358.34;5265171;27;20352;-77
2024/04/23 09:40:24;;;;;;;1.90;1.80;;;;;;;10.15;76.81;101359.19;5269808;27;20576;-76
2024/04/23 09:42:55;;;;;;;2.83;2.33;;;;;;;10.14;68.35;101353.13;5268602;27;20293;-77
2024/04/23 09:45:25;;;;;;;1.70;1.60;;;;;;;10.13;61.55;101356.84;5267344;27;20317;-76
2024/04/23 09:47:53;;;;;;;2.23;1.70;;;;;;;10.15;65.38;101353.91;5263831;27;20278;-75
2024/04/23 09:50:19;;;;;;;2.80;1.90;;;;;;;10.14;85.61;101347.06;5264121;27;20311;-75
2024/04/23 09:52:48;;;;;;;1.63;1.50;;;;;;;10.11;61.72;101345.03;5269729;27;20246;-74
2024/04/23 09:55:15;;;;;;;1.67;1.43;;;;;;;10.13;64.99;101338.38;5248307;27;20336;-75
2024/04/23 09:57:46;;;;;;;2.00;1.80;;;;;;;10.11;93.94;101345.81;5266433;27;20243;-76
2024/04/23 10:00:12;;;;;;;2.33;1.80;;;;;;;10.08;62.88;101337.72;5269991;27;20422;-75
2024/04/23 10:02:41;;;;;;;2.03;1.50;;;;;;;10.10;65.96;101340.84;5266719;27;20299;-75
2024/04/23 10:05:13;;;;;;;2.10;1.90;;;;;;;10.03;58.35;101335.97;5261435;27;20267;-76
2024/04/23 10:07:50;;;;;;;3.87;2.07;;;;;;;9.90;58.43;101326.28;5262170;27;20247;-76
2024/04/23 10:10:26;;;;;;;1.93;1.83;;;;;;;10.02;96.60;101323.84;5269837;27;20277;-76
2024/04/23 10:13:02;;;;;;;1.80;1.60;;;;;;;10.02;63.88;101326.50;5269342;27;20276;-76
2024/04/23 10:15:45;;;;;;;2.00;1.80;;;;;;;9.96;58.32;101326.91;5262243;27;20749;-76
2024/04/23 10:18:20;;;;;;;1.93;1.67;;;;;;;9.95;70.19;101318.22;5260217;27;20286;-76
2024/04/23 10:20:48;;;;;;;2.10;1.70;;;;;;;9.97;57.29;101317.91;5266301;27;20242;-76
2024/04/23 10:23:21;;;;;;;1.97;1.67;;;;;;;10.01;69.65;101311.75;5264151;27;20235;-77
2024/04/23 10:25:47;;;;;;;1.77;1.67;;;;;;;10.04;61.54;101313.78;5264408;27;20378;-76
2024/04/23 10:28:19;;;;;;;3.90;2.10;;;;;;;10.06;57.53;101306.38;5264141;27;20289;-76
2024/04/23 10:30:46;;;;;;;1.50;1.40;;;;;;;10.12;57.86;101307.78;5265317;27;20291;-76
2024/04/23 10:33:16;;;;;;;2.73;1.70;;;;;;;10.15;56.90;101301.13;5265329;27;20247;-76
2024/04/23 10:35:43;;;;;;;7.37;2.10;;;;;;;10.19;56.12;101294.91;5266972;27;20315;-76
2024/04/23 10:38:16;;;;;;;4.27;1.93;;;;;;;10.24;63.20;101292.16;5265914;27;20270;-76
2024/04/23 10:40:46;;;;;;;8.23;2.50;;;;;;;10.31;94.48;101291.72;5261669;27;20302;-77
2024/04/23 10:43:14;;;;;;;3.87;2.20;;;;;;;10.38;86.13;101287.53;5268068;27;20286;-76
2024/04/23 10:45:42;;;;;;;21.77;4.20;;;;;;;10.39;58.12;101286.44;5266394;27;20256;-77
2024/04/23 10:48:12;;;;;;;1.93;1.70;;;;;;;10.42;66.50;101279.78;5266083;27;20294;-77
2024/04/23 10:50:38;;;;;;;2.13;1.50;;;;;;;10.56;61.22;101275.91;5265660;27;20240;-76
2024/04/23 10:53:07;;;;;;;3.27;1.60;;;;;;;10.75;62.48;101275.63;5266782;27;20275;-77
2024/04/23 10:55:32;;;;;;;1.83;1.63;;;;;;;10.83;62.10;101275.66;5265585;27;20304;-76
2024/04/23 10:58:18;;;;;;;1.83;1.67;;;;;;;10.95;58.91;101259.19;5265388;27;20869;-75
2024/04/23 11:00:57;;;;;;;2.40;1.77;;;;;;;11.00;56.46;101266.97;5268586;27;20358;-76
2024/04/23 11:03:28;;;;;;;2.07;1.60;;;;;;;11.05;55.74;101264.16;5256719;27;20246;-77
2024/04/23 11:06:20;;;;;;;1.60;1.50;;;;;;;11.12;76.52;101259.97;5264604;27;20511;-77
2024/04/23 11:08:54;;;;;;;4.03;1.90;;;;;;;11.17;56.97;101264.31;5259372;27;20240;-76
2024/04/23 11:11:23;;;;;;;2.50;1.47;;;;;;;11.21;54.91;101267.88;5257785;27;20257;-77
2024/04/23 11:13:59;;;;;;;2.30;1.70;;;;;;;11.25;58.60;101250.31;5259617;27;20343;-77
2024/04/23 11:16:27;;;;;;;1.70;1.60;;;;;;;11.27;54.59;101256.06;5263972;27;20291;-76
2024/04/23 11:19:00;;;;;;;1.80;1.70;;;;;;;11.29;50.86;101244.06;5265426;27;20343;-77
2024/04/23 11:21:27;;;;;;;2.17;1.60;;;;;;;11.29;51.80;101241.44;5265651;27;20312;-77
2024/04/23 11:23:58;;;;;;;1.63;1.40;;;;;;;11.32;52.58;101246.09;5268325;27;20283;-76
2024/04/23 11:26:24;;;;;;;2.77;1.67;;;;;;;11.28;50.56;101239.13;5267201;27;20273;-76
2024/04/23 11:28:56;;;;;;;1.70;1.60;;;;;;;11.19;49.01;101241.00;5257730;27;20249;-76
2024/04/23 11:31:25;;;;;;;1.40;1.30;;;;;;;11.27;53.97;101240.19;5272152;27;20256;-77